Map

Track Data

SID SEASON NUMBER BASIN SUBBASIN NAME ISO_TIME NATURE LAT LON WMO_WIND WMO_PRES WMO_AGENCY TRACK_TYPE DIST2LAND LANDFALL IFLAG USA_AGENCY USA_ATCF_ID USA_LAT USA_LON USA_RECORD USA_STATUS USA_WIND USA_PRES USA_SSHS USA_R34_NE USA_R34_SE USA_R34_SW USA_R34_NW USA_R50_NE USA_R50_SE USA_R50_SW USA_R50_NW USA_R64_NE USA_R64_SE USA_R64_SW USA_R64_NW USA_POCI USA_ROCI USA_RMW USA_EYE TOKYO_LAT TOKYO_LON TOKYO_GRADE TOKYO_WIND TOKYO_PRES TOKYO_R50_DIR TOKYO_R50_LONG TOKYO_R50_SHORT TOKYO_R30_DIR TOKYO_R30_LONG TOKYO_R30_SHORT TOKYO_LAND CMA_LAT CMA_LON CMA_CAT CMA_WIND CMA_PRES HKO_LAT HKO_LON HKO_CAT HKO_WIND HKO_PRES NEWDELHI_LAT NEWDELHI_LON NEWDELHI_GRADE NEWDELHI_WIND NEWDELHI_PRES NEWDELHI_CI NEWDELHI_DP NEWDELHI_POCI REUNION_LAT REUNION_LON REUNION_TYPE REUNION_WIND REUNION_PRES REUNION_TNUM REUNION_CI REUNION_RMW REUNION_R34_NE REUNION_R34_SE REUNION_R34_SW REUNION_R34_NW REUNION_R50_NE REUNION_R50_SE REUNION_R50_SW REUNION_R50_NW REUNION_R64_NE REUNION_R64_SE REUNION_R64_SW REUNION_R64_NW BOM_LAT BOM_LON BOM_TYPE BOM_WIND BOM_PRES BOM_TNUM BOM_CI BOM_RMW BOM_R34_NE BOM_R34_SE BOM_R34_SW BOM_R34_NW BOM_R50_NE BOM_R50_SE BOM_R50_SW BOM_R50_NW BOM_R64_NE BOM_R64_SE BOM_R64_SW BOM_R64_NW BOM_ROCI BOM_POCI BOM_EYE BOM_POS_METHOD BOM_PRES_METHOD NADI_LAT NADI_LON NADI_CAT NADI_WIND NADI_PRES WELLINGTON_LAT WELLINGTON_LON WELLINGTON_WIND WELLINGTON_PRES DS824_LAT DS824_LON DS824_STAGE DS824_WIND DS824_PRES TD9636_LAT TD9636_LON TD9636_STAGE TD9636_WIND TD9636_PRES TD9635_LAT TD9635_LON TD9635_WIND TD9635_PRES TD9635_ROCI NEUMANN_LAT NEUMANN_LON NEUMANN_CLASS NEUMANN_WIND NEUMANN_PRES MLC_LAT MLC_LON MLC_CLASS MLC_WIND MLC_PRES USA_GUST BOM_GUST BOM_GUST_PER REUNION_GUST REUNION_GUST_PER USA_SEAHGT USA_SEARAD_NE USA_SEARAD_SE USA_SEARAD_SW USA_SEARAD_NW STORM_SPEED STORM_DIR
1998335S12138 1999 98 SP EA THELMA 1998-11-30 23:30:00 NR -12.0000 138.000 15 1007 bom main 113 113 ______O_______ -1 -12.0000 138.000 20 15 1007 3 3 0
1998335S12138 1999 98 SP EA THELMA 1998-12-01 00:00:00 TS -11.9937 137.978 main 113 97 ______P_____O_ -1 -11.9906 137.967 20 15 1006 -12.0000 138.000 TC 15 1007 4 294
1998335S12138 1999 98 SP EA THELMA 1998-12-01 03:00:00 TS -11.9039 137.780 main 97 86 ______P_____P_ -1 -11.9366 137.767 20 15 1005 -11.8550 137.800 TC 15 4 295
1998335S12138 1999 98 SP EA THELMA 1998-12-01 05:30:00 TS -11.8258 137.614 15 1004 bom main 86 86 ______O_____P_ -1 -11.9000 137.600 20 15 1004 3 -11.7270 137.633 TC 15 4 299
1998335S12138 1999 98 SP EA THELMA 1998-12-01 06:00:00 TS -11.7971 137.583 main 86 78 ______P_____O_ -1 -11.8941 137.567 20 15 1004 -11.7000 137.600 TC 15 4 300
1998335S12138 1999 98 SP EA THELMA 1998-12-01 09:00:00 TS -11.6963 137.383 main 80 74 ______P_____P_ -1 -11.8576 137.367 20 15 1005 -11.5350 137.400 TC 15 4 298
1998335S12138 1999 98 SP EA THELMA 1998-12-01 11:30:00 TS -11.6091 137.217 15 1007 bom main 81 81 ______O_____P_ -1 -11.8000 137.200 20 15 1007 3 -11.4183 137.233 TC 15 4 298
1998335S12138 1999 98 SP EA THELMA 1998-12-01 12:00:00 TS -11.5908 137.183 main 81 78 ______P_____O_ -1 -11.7817 137.167 20 15 1006 -11.4000 137.200 TC 15 4 298
1998335S12138 1999 98 SP EA THELMA 1998-12-01 15:00:00 TS -11.4866 136.983 main 78 70 ______P_____P_ -1 -11.6382 136.967 20 15 1005 -11.3350 137.000 TC 15 4 298
1998335S12138 1999 98 SP EA THELMA 1998-12-01 17:30:00 TS -11.4029 136.817 15 1005 bom main 74 74 ______O_____P_ -1 -11.5000 136.800 20 15 1005 3 -11.3059 136.833 TC 15 4 297
1998335S12138 1999 98 SP EA THELMA 1998-12-01 18:00:00 TS -11.3863 136.783 main 74 70 ______P_____O_ -1 -11.4725 136.765 20 15 1005 -11.3000 136.800 TC 15 5 297
1998335S12138 1999 98 SP EA THELMA 1998-12-01 21:00:00 TS -11.2833 136.576 main 79 78 ______P_____P_ -1 -11.3091 136.559 20 15 1006 -11.2575 136.593 TC 15 4 297
1998335S12138 1999 98 SP EA THELMA 1998-12-01 23:30:00 TS -11.2058 136.415 15 1007 bom main 90 90 ______O_____P_ -1 -11.2000 136.400 20 15 1007 3 -11.2117 136.430 TC 15 4 296
1998335S12138 1999 98 SP EA THELMA 1998-12-02 00:00:00 TS -11.1931 136.385 main 90 90 ______P_____O_ -1 -11.1862 136.370 20 15 1006 -11.2000 136.400 TC 15 1006 4 294
1998335S12138 1999 98 SP EA THELMA 1998-12-02 03:00:00 TS -11.1219 136.223 main 105 105 ______P_____P_ -1 -11.1364 136.210 20 15 1005 -11.1075 136.235 TC 15 3 296
1998335S12138 1999 98 SP EA THELMA 1998-12-02 05:30:00 TS -11.0589 136.110 15 1005 bom main 109 109 ______O_____P_ -1 -11.1000 136.100 20 15 1005 3 -11.0179 136.120 TC 15 3 301
1998335S12138 1999 98 SP EA THELMA 1998-12-02 06:00:00 TS -11.0433 136.090 main 120 120 ______P_____O_ -1 -11.0867 136.080 20 15 1005 -11.0000 136.100 TC 15 3 314
1998335S12138 1999 98 SP EA THELMA 1998-12-02 09:00:00 TS -10.9450 135.988 main 134 134 ______P_____P_ -1 -10.9899 135.977 20 15 1006 -10.9000 136.000 TC 15 3 316
1998335S12138 1999 98 SP EA THELMA 1998-12-02 11:30:00 TS -10.8583 135.909 15 1007 bom main 134 134 ______O_____P_ -1 -10.9000 135.900 20 15 1007 3 -10.8167 135.919 TC 15 3 316
1998335S12138 1999 98 SP EA THELMA 1998-12-02 12:00:00 TS -10.8423 135.892 main 146 145 ______P_____O_ -1 -10.8846 135.885 20 15 1006 -10.8000 135.900 TC 15 3 310
1998335S12138 1999 98 SP EA THELMA 1998-12-02 15:00:00 TS -10.7457 135.771 main 156 156 ______P_____P_ -1 -10.7913 135.791 20 15 1005 -10.7000 135.750 TC 15 3 309
1998335S12138 1999 98 SP EA THELMA 1998-12-02 17:30:00 TS -10.6583 135.661 15 1005 bom main 156 156 ______O_____P_ -1 -10.7000 135.700 20 15 1005 3 -10.6167 135.623 TC 15 3 310
1998335S12138 1999 98 SP EA THELMA 1998-12-02 18:00:00 TS -10.6379 135.640 main 167 167 ______P_____O_ -1 -10.6759 135.680 20 15 1005 -10.6000 135.600 TC 15 4 319
1998335S12138 1999 98 SP EA THELMA 1998-12-02 21:00:00 TS -10.5041 135.524 main 179 179 ______P_____P_ -1 -10.5157 135.540 20 15 1006 -10.4925 135.508 TC 15 4 316
1998335S12138 1999 98 SP EA THELMA 1998-12-02 23:30:00 TS -10.4067 135.411 15 1007 bom main 191 191 ______O_____P_ -1 -10.4000 135.400 20 15 1007 3 -10.4133 135.422 TC 15 4 309
1998335S12138 1999 98 SP EA THELMA 1998-12-03 00:00:00 TS -10.3925 135.384 main 191 191 ______P_____O_ -1 -10.3850 135.369 20 15 1006 -10.4000 135.400 TC 15 1008 4 288
1998335S12138 1999 98 SP EA THELMA 1998-12-03 03:00:00 TS -10.3355 135.186 main 206 202 ______P_____P_ -1 -10.3284 135.165 20 15 1005 -10.3425 135.208 TC 15 4 284
1998335S12138 1999 98 SP EA THELMA 1998-12-03 05:30:00 TS -10.3036 135.016 15 1004 bom main 202 202 ______O_____P_ -1 -10.3000 135.000 20 15 1004 3 -10.3071 135.032 TC 15 4 281
1998335S12138 1999 98 SI WA THELMA 1998-12-03 06:00:00 TS -10.2958 134.986 main 202 201 ______P_____O_ -1 -10.2917 134.972 20 15 1004 -10.3000 135.000 TC 15 3 290
1998335S12138 1999 98 SI WA THELMA 1998-12-03 09:00:00 TS -10.2383 134.834 main 209 204 ______P_____P_ -1 -10.2416 134.818 20 15 1005 -10.2350 134.850 TC 17 3 289
1998335S12138 1999 98 SI WA THELMA 1998-12-03 11:30:00 TS -10.2008 134.714 15 1006 bom main 204 204 ______O_____P_ -1 -10.2000 134.700 20 15 1006 3 -10.2016 134.727 TC 19 3 287
1998335S12138 1999 98 SI WA THELMA 1998-12-03 12:00:00 TS -10.1958 134.688 main 204 194 ______P_____O_ -1 -10.1917 134.676 20 15 1005 -10.2000 134.700 TC 20 3 269
1998335S12138 1999 98 SI WA THELMA 1998-12-03 15:00:00 TS -10.2033 134.517 main 194 190 ______P_____P_ -1 -10.1416 134.533 20 15 1004 -10.2650 134.500 TC 20 3 269
1998335S12138 1999 98 SI WA THELMA 1998-12-03 17:30:00 TS -10.2013 134.366 15 1004 bom main 190 187 ______O_____P_ -1 -10.1000 134.400 20 15 1004 3 -10.3026 134.331 TC 20 4 272
1998335S12138 1999 98 SI WA THELMA 1998-12-03 18:00:00 TS -10.1958 134.336 main 187 184 ______P_____O_ -1 -10.0917 134.371 20 15 1004 -10.3000 134.300 TC 20 4 297
1998335S12138 1999 98 SI WA THELMA 1998-12-03 21:00:00 TS -10.1033 134.169 main 195 188 ______P_____P_ -1 -10.0417 134.181 20 15 1005 -10.1650 134.157 TC 20 4 300
1998335S12138 1999 98 SI WA THELMA 1998-12-03 23:30:00 TS -10.0116 134.015 15 1006 bom main 197 197 ______O_____P_ -1 -10.0000 134.000 20 15 1006 3 -10.0232 134.030 TC 20 6 321
1998335S12138 1999 98 SI WA THELMA 1998-12-04 00:00:00 TS -9.86351 133.972 main 206 206 O_____P_____O_ jtwc_sh SH061999 -8.80000 133.900 25 -1 -9.99290 133.962 20 15 1005 -10.0000 134.000 TC 20 1006 7 314
1998335S12138 1999 98 SI WA THELMA 1998-12-04 03:00:00 TS -9.75035 133.737 main 199 199 P_____P_____P_ SH061999 -8.96748 133.725 25 -1 -9.94963 133.715 20 15 1004 -9.94251 133.765 TC 20 1005 5 293
1998335S12138 1999 98 SI WA THELMA 1998-12-04 05:30:00 TS -9.68022 133.528 15 1004 bom main 201 201 P_____O_____P_ SH061999 -9.08183 133.543 25 -1 -9.90000 133.500 20 15 1004 3 -9.90922 133.544 TC 20 1005 6 296
1998335S12138 1999 98 SI WA THELMA 1998-12-04 06:00:00 TS -9.62848 133.486 main 212 204 O_____P_____I_ jtwc_sh SH061999 -9.10000 133.500 25 -1 -9.88545 133.457 20 15 1004 -9.90000 133.500 TC 20 1005 6 287
1998335S12138 1999 98 SI WA THELMA 1998-12-04 09:00:00 TS -9.58484 133.214 main 204 199 P_____P_____P_ SH061999 -9.17254 133.200 25 -1 -9.78198 133.200 20 17 1004 -9.80000 133.242 TC 20 1004 5 281
1998335S12138 1999 98 SI WA THELMA 1998-12-04 11:30:00 TS -9.53734 132.995 20 1004 bom main 205 205 P_____O_____P_ SH061999 -9.19749 132.946 25 -1 -9.70000 133.000 20 20 1004 1.00000 3 -9.71454 133.038 TC 20 1004 5 282
1998335S12138 1999 98 SI WA THELMA 1998-12-04 12:00:00 TS -9.52944 132.954 main 205 198 O_____P_____O_ jtwc_sh SH061999 -9.20000 132.900 25 -1 -9.68831 132.962 20 20 1003 -9.70000 133.000 TC 20 1004 4 280
1998335S12138 1999 98 SI WA THELMA 1998-12-04 15:00:00 TS -9.49249 132.741 main 195 193 P_____P_____P_ SH061999 -9.19996 132.685 25 -1 -9.63504 132.752 20 20 1002 -9.64249 132.785 TC 20 1004 4 280
1998335S12138 1999 98 SI WA THELMA 1998-12-04 17:30:00 TS -9.46832 132.587 20 1002 bom main 193 193 P_____O_____P_ SH061999 -9.19787 132.531 25 -1 -9.60000 132.600 20 20 1002 1.00000 3 -9.60710 132.629 TC 20 1004 4 279
1998335S12138 1999 98 SI WA THELMA 1998-12-04 18:00:00 TS -9.46430 132.557 main 193 190 O_____P_____I_ jtwc_sh SH061999 -9.20000 132.500 25 -1 -9.59289 132.572 20 20 1002 -9.60000 132.600 TC 20 1004 3 275
1998335S12138 1999 98 SI WA THELMA 1998-12-04 21:00:00 TS -9.44986 132.387 main 198 191 P_____P_____P_ SH061999 -9.24249 132.300 25 -1 -9.54962 132.418 20 22 1003 -9.55748 132.443 TC 20 1004 3 276
1998335S12138 1999 98 SI WA THELMA 1998-12-04 23:30:00 TS -9.43404 132.252 25 1004 bom main 191 185 P_____O_____P_ SH061999 -9.29043 132.133 25 -1 -9.50000 132.300 20 25 1004 1.50000 1010 3 -9.51168 132.324 TC 20 1004 3 278
1998335S12138 1999 98 SI WA THELMA 1998-12-05 00:00:00 TS -9.42885 132.228 main 185 179 O_____P_____O_ jtwc_sh SH061999 -9.30000 132.100 25 -1 -9.48656 132.283 20 25 1003 -9.50000 132.300 TC 20 1004 3 286
1998335S12138 1999 98 SI WA THELMA 1998-12-05 03:00:00 TS -9.38470 132.079 main 179 159 P_____P_____P_ SH061999 -9.35752 131.878 25 -1 -9.38916 132.179 20 25 1001 -9.40744 132.180 TC 22 1002 3 287
1998335S12138 1999 98 SI WA THELMA 1998-12-05 05:30:00 TS -9.33763 131.921 25 1000 bom main 159 159 P_____O_____P_ SH061999 -9.39502 131.723 25 -1 -9.30000 132.000 20 25 1000 1.50000 3 6 -9.31788 132.038 TC 24 1000 4 286
1998335S12138 1999 98 SI WA THELMA 1998-12-05 06:00:00 TS -9.32778 131.880 main 159 152 O_____P_____O_ jtwc_sh SH061999 -9.40000 131.700 25 -1 -9.28335 131.940 20 25 1000 -9.30000 132.000 TC 25 1000 6 284
1998335S12138 1999 98 SI WA THELMA 1998-12-05 08:30:00 TS -9.27050 131.645 25 1000 bom main 149 149 P_____O_____P_ SH061999 -9.40794 131.634 25 -1 -9.20000 131.600 20 25 1000 1.50000 3 6 -9.20356 131.700 TC 25 1000 6 284
1998335S12138 1999 98 SI WA THELMA 1998-12-05 09:00:00 TS -9.25777 131.600 main 149 134 P_____P_____P_ SH061999 -9.40748 131.628 25 -1 -9.18071 131.536 20 25 1000 -9.18513 131.635 TC 25 1000 5 286
1998335S12138 1999 98 SI WA THELMA 1998-12-05 11:30:00 TS -9.20374 131.416 25 1000 bom main 134 134 P_____O_____P_ SH061999 -9.40123 131.605 25 -1 -9.10000 131.300 20 25 1000 1.50000 3 6 -9.10999 131.343 TC 25 1000 4 287
1998335S12138 1999 98 SI WA THELMA 1998-12-05 12:00:00 TS -9.19809 131.394 main 134 134 O_____P_____O_ jtwc_sh SH061999 -9.40000 131.600 25 -1 -9.09428 131.283 20 25 999 -9.10000 131.300 TC 25 1000 1 284
1998335S12138 1999 98 SI WA THELMA 1998-12-05 14:30:00 TS -9.19026 131.354 25 998 bom main 134 134 P_____O_____P_ SH061999 -9.39338 131.558 25 -1 -9.10000 131.300 20 25 998 2.00000 3 6 -9.07739 131.204 TC 27 998 1 282
1998335S12138 1999 98 SI WA THELMA 1998-12-05 15:00:00 TS -9.18998 131.349 main 134 134 P_____P_____P_ SH061999 -9.39250 131.550 25 -1 -9.10000 131.300 20 25 997 -9.07744 131.198 TC 27 998 0 0
1998335S12138 1999 98 SI WA THELMA 1998-12-05 17:30:00 TS -9.19694 131.335 25 996 bom main 134 134 P_____O_____P_ SH061999 -9.39665 131.508 25 -1 -9.10000 131.300 20 25 996 2.00000 3 6 -9.09418 131.198 TC 29 996 0 0
1998335S12138 1999 98 SI WA THELMA 1998-12-05 18:00:00 TS -9.19913 131.333 main 134 134 O_____P_____O_ jtwc_sh SH061999 -9.40000 131.500 25 -1 -9.09738 131.300 20 25 996 -9.10000 131.200 TC 30 996 1 0
1998335S12138 1999 98 SI WA THELMA 1998-12-05 20:30:00 TS -9.22467 131.315 30 996 bom main 134 134 P_____O_____P_ SH061999 -9.43370 131.458 27 -1 -9.10000 131.300 20 30 996 2.50000 3 6 -9.14032 131.185 TC 32 995 1 204
1998335S12138 1999 98 SI WA THELMA 1998-12-05 21:00:00 TS -9.23536 131.312 main 134 134 P_____P_____P_ SH061999 -9.44250 131.450 27 -1 -9.11358 131.300 20 30 995 -9.15000 131.185 TC 32 995 1 0
1998335S12138 1999 98 SI WA THELMA 1998-12-05 23:30:00 TS -9.29474 131.301 30 994 bom main 145 145 P_____O_____P_ SH061999 -9.49044 131.408 29 -1 -9.20000 131.300 20 30 994 2.50000 1008 3 6 -9.19379 131.195 TC 34 994 1 194
1998335S12138 1999 98 SI WA THELMA 1998-12-06 00:00:00 TS -9.30190 131.300 main 145 145 O_____P_____O_ jtwc_sh SH061999 -9.50000 131.400 30 -1 -9.20571 131.300 20 30 993 -9.20000 131.200 TC 35 994 0 0
1998335S12138 1999 98 SI WA THELMA 1998-12-06 02:30:00 TS -9.31875 131.300 35 992 bom main 145 145 P_____O_____P_ SH061999 -9.54828 131.352 36 0 -9.20000 131.300 30 35 992 3.00000 3 6 -9.20797 131.247 TC 37 992 0 0
1998335S12138 1999 98 SI WA THELMA 1998-12-06 03:00:00 TS -9.32167 131.300 main 145 145 P_____P_____P_ SH061999 -9.55750 131.342 37 0 -9.20000 131.300 30 35 991 -9.20750 131.258 TC 37 992 0 0
1998335S12138 1999 98 SI WA THELMA 1998-12-06 05:30:00 TS -9.33208 131.301 40 990 bom main 145 145 P_____O_____P_ SH061999 -9.59502 131.305 43 0 -9.20000 131.300 30 40 990 3.00000 139 4 6 -9.20123 131.297 TC 39 990 0 0
1998335S12138 1999 98 SI WA THELMA 1998-12-06 06:00:00 TS -9.33333 131.301 main 145 145 O_____P_____O_ jtwc_sh SH061999 -9.60000 131.300 45 0 -9.20000 131.303 30 40 989 130 -9.20000 131.300 TC 40 990 0 0
1998335S12138 1999 98 SI WA THELMA 1998-12-06 08:30:00 TS -9.33378 131.289 45 985 bom main 145 145 P_____O_____P_ SH061999 -9.60135 131.299 45 0 -9.20000 131.300 30 45 985 3.00000 90 4 6 -9.20000 131.268 TC 44 987 0 0
1998335S12138 1999 98 SI WA THELMA 1998-12-06 09:00:00 TS -9.33333 131.281 main 145 145 P_____P_____P_ SH061999 -9.60000 131.300 45 0 -9.20000 131.286 30 45 985 98 -9.20000 131.258 TC 45 987 1 271
1998335S12138 1999 98 SI WA THELMA 1998-12-06 11:30:00 TS -9.33263 131.237 50 985 bom main 145 145 P_____O_____P_ SH061999 -9.59788 131.302 45 0 -9.20000 131.200 30 50 985 3.50000 139 4 6 -9.20000 131.207 TC 49 985 1 270
1998335S12138 1999 98 SI WA THELMA 1998-12-06 12:00:00 TS -9.33333 131.231 main 145 145 O_____P_____O_ jtwc_sh SH061999 -9.60000 131.300 45 0 -9.20000 131.194 30 50 984 140 -9.20000 131.200 TC 50 985 0 0
1998335S12138 1999 98 SI WA THELMA 1998-12-06 14:30:00 TS -9.34016 131.219 50 980 bom main 145 145 P_____O_____P_ SH061999 -9.63370 131.266 49 0 -9.20000 131.200 30 50 980 3.50000 150 18 4 6 -9.18677 131.192 TC 54 982 0 0
1998335S12138 1999 98 SI WA THELMA 1998-12-06 15:00:00 TS -9.34163 131.217 main 145 145 P_____P_____P_ SH061999 -9.64250 131.258 50 0 -9.19738 131.200 30 50 980 148 -9.18500 131.193 TC 55 982 1 0
1998335S12138 1999 98 SI WA THELMA 1998-12-06 17:30:00 TS -9.36124 131.203 55 980 bom main 156 156 P_____O_____P_ SH061999 -9.69044 131.210 54 0 -9.20000 131.200 30 55 980 4.00000 139 16 4 6 -9.19329 131.199 TC 59 980 1 224
1998335S12138 1999 98 SI WA THELMA 1998-12-06 18:00:00 TS -9.37032 131.200 main 156 156 O_____P_____O_ jtwc_sh SH061999 -9.70000 131.200 55 0 -9.21096 131.200 30 55 979 140 -9.20000 131.200 TC 60 980 1 195
1998335S12138 1999 98 SI WA THELMA 1998-12-06 20:30:00 TS -9.42753 131.182 60 978 bom main 156 156 P_____O_____P_ SH061999 -9.73505 131.158 57 0 -9.30000 131.200 30 60 978 4.00000 150 16 4 6 -9.24755 131.187 TC 64 977 1 0
1998335S12138 1999 98 SI WA THELMA 1998-12-06 21:00:00 TS -9.43968 131.178 main 156 156 P_____P_____P_ SH061999 -9.74250 131.150 57 0 -9.31404 131.200 30 60 977 148 -9.26250 131.185 TC 65 977 2 0
1998335S12138 1999 98 SI WA THELMA 1998-12-06 23:30:00 TS -9.51971 131.167 65 975 bom main 168 168 P_____O_____P_ SH061999 -9.78831 131.108 59 0 -9.40000 131.200 40 65 975 4.50000 139 1008 14 4 6 -9.37081 131.193 TC 69 975 2 193
1998335S12138 1999 98 SI WA THELMA 1998-12-07 00:00:00 TS -9.54167 131.168 main 168 168 O_____P_____O_ jtwc_sh SH061999 -9.80000 131.100 60 0 -9.42500 131.203 40 65 975 137 -9.40000 131.200 TC 70 975 3 0
1998335S12138 1999 98 SI WA THELMA 1998-12-07 02:30:00 TS -9.68439 131.193 70 975 bom main 179 179 P_____O_____P_ SH061999 -9.86213 131.065 72 1 -9.60000 131.200 40 70 975 4.50000 130 11 4 6 -9.59105 131.314 TC 72 972 4 0
1998335S12138 1999 98 SI WA THELMA 1998-12-07 03:00:00 TS -9.72068 131.195 main 179 156 P_____P_____P_ SH061999 -9.87750 131.057 75 1 -9.64954 131.189 40 70 974 133 -9.63500 131.337 TC 72 972 5 184
1998335S12138 1999 98 SI WA THELMA 1998-12-07 05:30:00 TS -9.91113 131.172 75 970 bom main 156 156 P_____O_____P_ SH061999 -9.97540 131.012 87 2 -9.90000 131.100 40 75 970 4.50000 150 9 4 6 -9.85799 131.404 TC 74 970 4 190
1998335S12138 1999 98 SI WA THELMA 1998-12-07 06:00:00 TS -9.94095 131.161 main 156 134 O_____P_____O_ jtwc_sh SH061999 -10.0000 131.000 90 2 -9.92284 131.083 40 75 968 141 -9.90000 131.400 TC 75 970 4 215
1998335S12138 1999 98 SI WA THELMA 1998-12-07 08:30:00 TS -10.0729 131.057 80 960 bom main 134 134 P_____O_____P_ SH061999 -10.1507 130.931 94 2 -10.0000 131.000 40 80 960 5.00000 99 9 4 6 -10.0681 131.241 TC 83 963 4 217
1998335S12138 1999 98 SI WA THELMA 1998-12-07 09:00:00 TS -10.1079 131.032 main 134 114 P_____P_____P_ SH061999 -10.1850 130.915 95 2 -10.0386 130.986 40 81 959 97 -10.1001 131.195 TC 85 962 6 215
1998335S12138 1999 98 SI WA THELMA 1998-12-07 11:30:00 TS -10.3096 130.889 90 955 bom main 114 114 P_____O_____P_ SH061999 -10.3642 130.821 99 3 -10.3000 130.900 40 90 955 5.50000 90 8 4 6 -10.2646 130.947 TC 93 956 6 216
1998335S12138 1999 98 SI WA THELMA 1998-12-07 12:00:00 TS -10.3509 130.857 main 103 79 O_____P_____O_ jtwc_sh SH061999 -10.4000 130.800 100 3 -10.3526 130.872 40 91 954 96 -10.3000 130.900 TC 95 955 6 215
1998335S12138 1999 98 SI WA THELMA 1998-12-07 14:30:00 TS -10.5645 130.709 100 950 bom main 79 79 P_____O_____P_ SH061999 -10.5666 130.696 106 3 -10.6000 130.700 40 100 950 6.00000 130 9 4 6 -10.5268 130.732 TC 103 950 6 214
1998335S12138 1999 98 SI WA THELMA 1998-12-07 15:00:00 TS -10.6047 130.681 main 79 56 P_____P_____P_ SH061999 -10.6000 130.672 107 3 -10.6417 130.672 40 100 949 130 -10.5725 130.700 TC 105 950 6 220
1998335S12138 1999 98 SI WA THELMA 1998-12-07 17:30:00 TS -10.7791 130.523 105 945 bom main 56 56 P_____O_____P_ SH061999 -10.7667 130.533 113 4 -10.8000 130.500 40 105 945 6.00000 130 10 4 6 -10.7705 130.535 TC 113 945 6 224
1998335S12138 1999 98 SI WA THELMA 1998-12-07 18:00:00 TS -10.8083 130.479 main 56 46 O_____P_____O_ jtwc_sh SH061999 -10.8000 130.500 115 4 -10.8250 130.437 40 105 945 130 -10.8000 130.500 TC 115 945 6 246
1998335S12138 1999 98 SI WA THELMA 1998-12-07 20:30:00 TS -10.9068 130.231 110 945 bom main 55 55 P_____O_____P_ SH061999 -10.9733 130.301 119 4 -10.9000 130.100 40 110 945 6.50000 130 9 4 6 -10.8471 130.293 TC 117 942 6 249
1998335S12138 1999 98 SI WA THELMA 1998-12-07 21:00:00 TS -10.9185 130.192 main 55 46 P_____P_____P_ SH061999 -11.0075 130.258 120 4 -10.8978 130.069 40 110 944 131 -10.8500 130.250 TC 117 942 4 249
1998335S12138 1999 98 SI WA THELMA 1998-12-07 23:30:00 TS -10.9844 130.027 110 940 bom main 49 49 P_____O_____P_ SH061999 -11.1700 130.041 124 4 -10.9000 130.000 40 110 940 6.50000 139 1008 9 4 6 -10.8832 130.040 TC 119 940 4 245
1998335S12138 1999 98 SI WA THELMA 1998-12-08 00:00:00 TS -11.0118 129.991 main 49 39 O_____P_____O_ jtwc_sh SH061999 -11.2000 130.000 125 4 -10.9355 129.972 40 110 939 140 -10.9000 130.000 TC 120 940 6 222
1998335S12138 1999 98 SI WA THELMA 1998-12-08 02:30:00 TS -11.2142 129.817 110 935 bom main 46 46 P_____O_____P_ SH061999 -11.3462 129.825 122 4 -11.2000 129.800 40 110 935 6.50000 150 8 4 6 -11.0963 129.825 TC 122 935 6 220
1998335S12138 1999 98 SI WA THELMA 1998-12-08 03:00:00 TS -11.2522 129.784 main 39 39 P_____P_____P_ SH061999 -11.3725 129.792 122 4 -11.2417 129.767 40 110 934 150 -11.1425 129.793 TC 122 935 6 223
1998335S12138 1999 98 SI WA THELMA 1998-12-08 05:30:00 TS -11.4155 129.621 115 930 bom main 55 55 P_____O_____P_ SH061999 -11.4829 129.632 120 4 -11.4000 129.600 40 115 930 6.50000 150 7 4 6 -11.3635 129.632 TC 124 930 5 225
1998335S12138 1999 98 SI WA THELMA 1998-12-08 06:00:00 TS -11.4408 129.589 main 55 54 O_____P_____O_ jtwc_sh SH061999 -11.5000 129.600 120 4 -11.4224 129.567 40 115 929 144 -11.4000 129.600 TC 125 930 4 241
1998335S12138 1999 98 SI WA THELMA 1998-12-08 08:30:00 TS -11.5238 129.424 120 925 bom main 76 76 P_____O_____P_ SH061999 -11.5576 129.433 126 4 -11.5000 129.400 40 120 925 7.00000 119 4 4 6 -11.5138 129.440 TC 131 925 4 244
1998335S12138 1999 98 SI WA THELMA 1998-12-08 09:00:00 TS -11.5372 129.392 main 76 76 P_____P_____P_ SH061999 -11.5650 129.400 127 4 -11.5167 129.369 40 120 924 115 -11.5300 129.407 TC 132 925 4 250
1998335S12138 1999 98 SI WA THELMA 1998-12-08 11:30:00 TS -11.5948 129.223 120 920 bom main 98 98 P_____O_____P_ SH061999 -11.5941 129.233 133 4 -11.6000 129.200 40 120 920 7.00000 99 4 4 6 -11.5904 129.237 TC 138 920 4 251
1998335S12138 1999 98 SI WA THELMA 1998-12-08 12:00:00 TS -11.6064 129.184 main 98 98 O_____P_____O_ jtwc_sh SH061999 -11.6000 129.200 135 4 -11.6193 129.153 40 120 920 99 -11.6000 129.200 TC 140 920 5 255
1998335S12138 1999 98 SI WA THELMA 1998-12-08 14:30:00 TS -11.6616 128.973 120 920 bom main 120 120 P_____O_____P_ SH061999 -11.6350 129.033 135 4 -11.7000 128.900 40 120 920 7.00000 99 3 4 6 -11.6497 128.986 TC 140 920 5 256
1998335S12138 1999 98 SI WA THELMA 1998-12-08 15:00:00 TS -11.6686 128.934 main 131 131 P_____P_____P_ SH061999 -11.6425 129.000 135 4 -11.7057 128.861 40 120 920 104 -11.6575 128.942 TC 140 920 4 261
1998335S12138 1999 98 SI WA THELMA 1998-12-08 17:30:00 TS -11.6937 128.757 120 920 bom main 142 142 P_____O_____P_ SH061999 -11.6883 128.833 135 4 -11.7000 128.700 40 120 920 7.00000 130 3 4 6 -11.6929 128.736 TC 140 920 4 262
1998335S12138 1999 98 SI WA THELMA 1998-12-08 18:00:00 TS -11.6991 128.721 main 152 152 O_____P_____O_ jtwc_sh SH061999 -11.7000 128.800 135 4 -11.6974 128.664 40 120 920 131 -11.7000 128.700 TC 140 920 4 259
1998335S12138 1999 98 SI WA THELMA 1998-12-08 20:30:00 TS -11.7302 128.569 120 920 bom main 163 163 P_____O_____P_ SH061999 -11.7621 128.640 132 4 -11.7000 128.500 40 120 920 7.00000 139 4 4 6 -11.7284 128.566 TC 140 920 4 257
1998335S12138 1999 98 SI WA THELMA 1998-12-08 21:00:00 TS -11.7402 128.543 main 174 174 P_____P_____P_ SH061999 -11.7775 128.607 132 4 -11.7083 128.480 40 119 920 139 -11.7350 128.542 TC 140 920 3 238
1998335S12138 1999 98 SI WA THELMA 1998-12-08 23:30:00 TS -11.8201 128.421 115 920 bom main 185 185 P_____O_____P_ SH061999 -11.8754 128.437 130 4 -11.8000 128.400 40 115 920 7.00000 139 1008 4 4 6 -11.7849 128.426 TC 140 920 4 235
1998335S12138 1999 98 SI WA THELMA 1998-12-09 00:00:00 TS -11.8434 128.391 main 185 185 O_____P_____O_ jtwc_sh SH061999 -11.9000 128.400 130 4 -11.8302 128.372 40 114 920 139 -11.8000 128.400 TC 140 920 5 229
1998335S12138 1999 98 SI WA THELMA 1998-12-09 02:30:00 TS -11.9910 128.220 110 920 bom main 208 208 P_____O_____P_ SH061999 -12.0639 128.206 130 4 -12.0000 128.200 40 110 920 7.00000 139 4 4 6 -11.9090 128.255 TC 135 922 5 229
1998335S12138 1999 98 SI WA THELMA 1998-12-09 03:00:00 TS -12.0191 128.186 main 208 208 P_____P_____P_ SH061999 -12.1000 128.165 130 4 -12.0224 128.169 40 110 920 134 -11.9350 128.222 TC 135 922 5 235
1998335S12138 1999 98 SI WA THELMA 1998-12-09 05:30:00 TS -12.1478 127.996 110 925 bom main 213 204 P_____O_____P_ SH061999 -12.2709 127.946 130 4 -12.1000 128.000 40 110 925 7.00000 110 4 4 6 -12.0725 128.041 TC 130 924 6 236
1998335S12138 1999 98 SI WA THELMA 1998-12-09 06:00:00 TS -12.1713 127.952 main 204 180 O_____P_____O_ jtwc_sh SH061999 -12.3000 127.900 130 4 -12.1140 127.956 40 110 925 113 -12.1000 128.000 TC 130 925 6 247
1998335S12138 1999 98 SI WA THELMA 1998-12-09 08:30:00 TS -12.2682 127.704 110 925 bom main 180 180 P_____O_____P_ SH061999 -12.3860 127.651 130 4 -12.2000 127.700 40 110 925 7.00000 130 4 4 6 -12.2184 127.759 TC 130 925 6 248
1998335S12138 1999 98 SI WA THELMA 1998-12-09 09:00:00 TS -12.2901 127.652 main 180 160 P_____P_____P_ SH061999 -12.4000 127.600 130 4 -12.2276 127.650 40 110 925 128 -12.2425 127.707 TC 130 925 7 243
1998335S12138 1999 98 SI WA THELMA 1998-12-09 11:30:00 TS -12.4169 127.399 110 925 bom main 160 160 P_____O_____P_ SH061999 -12.4791 127.348 130 4 -12.4000 127.400 40 110 925 7.00000 119 3 4 6 -12.3717 127.449 TC 130 925 7 242
1998335S12138 1999 98 SI WA THELMA 1998-12-09 12:00:00 TS -12.4444 127.349 main 158 134 O_____P_____O_ jtwc_sh SH061999 -12.5000 127.300 130 4 -12.4333 127.347 40 110 925 119 -12.4000 127.400 TC 130 925 7 234
1998335S12138 1999 98 SI WA THELMA 1998-12-09 14:30:00 TS -12.6119 127.118 110 925 bom main 134 134 P_____O_____P_ SH061999 -12.6640 127.071 130 4 -12.6000 127.100 40 110 925 6.50000 119 3 4 6 -12.5719 127.184 TC 127 927 7 232
1998335S12138 1999 98 SI WA THELMA 1998-12-09 15:00:00 TS -12.6478 127.077 main 134 111 P_____P_____P_ SH061999 -12.7000 127.028 130 4 -12.6359 127.061 40 110 925 117 -12.6075 127.143 TC 127 927 6 227
1998335S12138 1999 98 SI WA THELMA 1998-12-09 17:30:00 TS -12.8143 126.891 110 930 bom main 111 111 P_____O_____P_ SH061999 -12.8709 126.834 130 4 -12.8000 126.900 40 110 930 6.50000 110 4 4 6 -12.7721 126.940 TC 125 929 6 228
1998335S12138 1999 98 SI WA THELMA 1998-12-09 18:00:00 TS -12.8408 126.856 main 111 101 O_____P_____O_ jtwc_sh SH061999 -12.9000 126.800 130 4 -12.8224 126.869 40 110 930 111 -12.8000 126.900 TC 125 930 5 241
1998335S12138 1999 98 SI WA THELMA 1998-12-09 20:30:00 TS -12.9262 126.686 110 930 bom main 103 103 P_____O_____P_ SH061999 -12.9926 126.666 130 4 -12.9000 126.700 40 110 930 6.50000 119 4 4 6 -12.8860 126.692 TC 125 930 5 244
1998335S12138 1999 98 SI WA THELMA 1998-12-09 21:00:00 TS -12.9405 126.649 main 105 95 P_____P_____P_ SH061999 -13.0074 126.642 130 4 -12.9140 126.656 40 110 930 122 -12.9000 126.650 TC 125 930 5 247
1998335S12138 1999 98 SI WA THELMA 1998-12-09 23:30:00 TS -13.0205 126.456 110 930 bom main 99 99 P_____O_____P_ SH061999 -13.0824 126.526 130 4 -13.0000 126.400 40 110 930 6.50000 139 1008 4 4 6 -12.9791 126.442 TC 125 930 5 246
1998335S12138 1999 98 SI WA THELMA 1998-12-10 00:00:00 TS -13.0425 126.416 main 104 90 O_____P_____O_ jtwc_sh SH061999 -13.1000 126.500 130 4 -13.0276 126.347 40 110 930 139 -13.0000 126.400 TC 125 930 6 236
1998335S12138 1999 98 SI WA THELMA 1998-12-10 02:30:00 TS -13.1848 126.207 110 930 bom main 90 90 P_____O_____P_ SH061999 -13.2038 126.341 127 4 -13.2000 126.100 40 110 930 6.50000 139 4 4 6 -13.1507 126.178 TC 122 932 6 234
1998335S12138 1999 98 SI WA THELMA 1998-12-10 03:00:00 TS -13.2153 126.168 main 90 68 P_____P_____P_ SH061999 -13.2275 126.307 127 4 -13.2333 126.061 40 110 930 139 -13.1850 126.135 TC 122 932 6 228
1998335S12138 1999 98 SI WA THELMA 1998-12-10 05:30:00 TS -13.3771 125.990 110 935 bom main 68 68 P_____O_____P_ SH061999 -13.3671 126.135 125 4 -13.4000 125.900 40 110 935 6.50000 139 3 4 6 -13.3642 125.935 TC 120 934 6 226
1998335S12138 1999 98 SI WA THELMA 1998-12-10 06:00:00 TS -13.4111 125.955 main 68 55 O_____P_____O_ jtwc_sh SH061999 -13.4000 126.100 125 4 -13.4333 125.864 40 110 935 134 -13.4000 125.900 TC 120 935 6 222
1998335S12138 1999 98 SI WA THELMA 1998-12-10 08:30:00 TS -13.5797 125.800 110 935 bom main 55 55 P_____O_____P_ SH061999 -13.5858 125.933 125 4 -13.6000 125.700 40 110 935 6.50000 110 8 4 6 -13.5534 125.766 TC 120 935 5 221
1998335S12138 1999 98 SI WA THELMA 1998-12-10 09:00:00 TS -13.6144 125.773 main 55 46 P_____P_____P_ SH061999 -13.6275 125.900 125 4 -13.6307 125.678 40 108 935 110 -13.5849 125.742 TC 120 935 5 212
1998335S12138 1999 98 SI WA THELMA 1998-12-10 11:30:00 TS -13.8042 125.653 100 935 bom main 46 46 P_____O_____P_ SH061999 -13.8525 125.733 125 4 -13.8000 125.600 40 100 935 6.00000 110 7 3 6 -13.7599 125.626 TC 120 935 5 210
1998335S12138 1999 98 SI WA THELMA 1998-12-10 12:00:00 TS -13.8481 125.630 main 54 24 O_____P_____O_ jtwc_sh SH061999 -13.9000 125.700 125 4 -13.8443 125.589 40 100 936 108 -13.8000 125.600 TC 120 935 7 210
1998335S12138 1999 98 SI WA THELMA 1998-12-10 14:30:00 TS -14.0898 125.481 100 945 bom main 24 24 P_____O_____P_ SH061999 -14.1354 125.520 122 4 -14.1000 125.500 40 100 945 6.00000 99 7 3 6 -14.0341 125.422 TC 113 941 7 212
1998335S12138 1999 98 SI WA THELMA 1998-12-10 15:00:00 TS -14.1400 125.441 main 31 22 P_____P_____P_ SH061999 -14.1850 125.485 122 4 -14.1500 125.454 40 98 945 100 -14.0850 125.385 TC 112 942 8 216
1998335S12138 1999 98 SI WA THELMA 1998-12-10 17:30:00 TS -14.3977 125.250 90 950 bom main 22 22 P_____O_____P_ SH061999 -14.4454 125.327 120 4 -14.4000 125.200 40 90 950 5.50000 110 7 3 6 -14.3475 125.225 TC 106 948 7 213
1998335S12138 1999 98 SI WA THELMA 1998-12-10 18:00:00 TS -14.4500 125.228 main 22 0 O_____P_____O_ jtwc_sh SH061999 -14.5000 125.300 120 4 -14.4500 125.185 40 87 951 110 -14.4000 125.200 TC 105 950 6 193
1998335S12138 1999 98 SI WA THELMA 1998-12-10 20:30:00 TS -14.7090 125.176 75 960 bom main 10 10 P_____O_____P_ SH061999 -14.7903 125.194 117 4 -14.7000 125.200 40 75 960 5.00000 110 7 3 6 -14.6367 125.134 TC 92 958 6 189
1998335S12138 1999 98 SI WA THELMA 1998-12-10 21:00:00 TS -14.7599 125.165 main 0 0 P_____P_____P_ SH061999 -14.8500 125.177 117 4 -14.7448 125.189 40 73 961 108 -14.6850 125.127 TC 90 960 7 191
1998335S12138 1999 98 SI WA THELMA 1998-12-10 23:30:00 TS -15.0290 125.105 65 970 bom main 10 0 P_____O_____P_ SH061999 -15.1438 125.111 115 4 -15.0000 125.100 40 65 970 4.50000 99 3 6 -14.9433 125.105 TC 77 968 7 192
1998335S12138 1999 98 SI WA THELMA 1998-12-11 00:00:00 TS -15.0924 125.094 main 0 0 O_____P_____O_ jtwc_sh SH061999 -15.2000 125.100 115 4 -15.0772 125.081 40 64 970 99 -15.0000 125.100 TC 75 970 8 190
1998335S12138 1999 98 SI WA THELMA 1998-12-11 02:30:00 TS -15.4317 125.034 60 975 bom main 10 0 P_____O_____P_ SH061999 -15.4580 125.050 104 3 -15.5000 125.000 30 60 975 4.00000 99 3 6 -15.3373 125.052 TC 68 974 8 190
1998335S12138 1999 98 SI WA THELMA 1998-12-11 03:00:00 TS -15.4921 125.026 main 0 0 P_____P_____P_ SH061999 -15.5075 125.042 102 3 -15.5614 124.994 30 58 975 100 -15.4075 125.043 TC 67 975 7 188
1998335S12138 1999 98 SI WA THELMA 1998-12-11 05:30:00 TS -15.7641 125.004 50 980 bom main 0 0 P_____O_____P_ SH061999 -15.7512 125.007 92 2 -15.8000 125.000 30 50 980 110 3 6 -15.7409 125.005 TC 61 979 7 184
1998335S12138 1999 98 SI WA THELMA 1998-12-11 06:00:00 TS -15.8175 125.000 main 0 0 O_____P_____O_ jtwc_sh SH061999 -15.8000 125.000 90 2 -15.8526 125.000 30 49 980 108 -15.8000 125.000 TC 60 980 6 0
1998335S12138 1999 98 SI WA THELMA 1998-12-11 08:30:00 TS -16.0607 124.990 45 985 bom main 0 0 P_____O_____P_ SH061999 -16.0500 124.952 79 1 -16.1000 125.000 30 45 985 99 3 6 -16.0322 125.018 TC 51 984 6 0
1998335S12138 1999 98 SI WA THELMA 1998-12-11 09:00:00 TS -16.1038 124.988 main 0 0 P_____P_____P_ SH061999 -16.1000 124.943 77 1 -16.1390 125.000 30 43 985 104 -16.0725 125.022 TC 50 985 5 184
1998335S12138 1999 98 SI WA THELMA 1998-12-11 11:30:00 TS -16.3040 124.972 35 990 bom main 0 0 P_____O_____P_ SH061999 -16.3500 124.905 67 1 -16.3000 125.000 30 35 990 130 3 6 -16.2620 125.012 TC 41 989 5 186
1998335S12138 1999 98 SI WA THELMA 1998-12-11 12:00:00 TS -16.3433 124.968 main 0 0 O_____P_____O_ jtwc_sh SH061999 -16.4000 124.900 65 1 -16.3299 125.004 30 34 990 -16.3000 125.000 TC 40 990 5 193
1998335S12138 1999 98 SI WA THELMA 1998-12-11 14:30:00 TS -16.5572 124.915 30 995 bom main 0 0 P_____O_____P_ SH061999 -16.6566 124.899 56 0 -16.5000 125.000 20 30 995 3 -16.5150 124.846 TC 40 991 5 195
1998335S12138 1999 98 SI WA THELMA 1998-12-11 15:00:00 TS -16.6051 124.896 main 0 0 P_____P_____P_ SH061999 -16.7075 124.900 55 0 -16.5502 124.981 20 29 995 -16.5576 124.808 TC 40 992 6 203
1998335S12138 1999 98 SI WA THELMA 1998-12-11 18:00:00 TS -16.9000 124.767 25 996 bom main 0 0 O_____O_____I_ jtwc_sh SH061999 -17.0000 124.900 45 0 -16.9000 124.800 20 25 996 3 -16.8000 124.600 TC 40 994 6 199
1998335S12138 1999 98 SI WA THELMA 1998-12-11 21:00:00 TS -17.1310 124.713 main 0 0 P_____P_____P_ SH061999 -17.2725 124.880 42 0 -17.1205 124.740 20 25 -17.0000 124.520 TC 40 996 4 193
1998335S12138 1999 98 SI WA THELMA 1998-12-12 00:00:00 TS -17.3333 124.667 25 bom main 0 0 O_____O_____O_ jtwc_sh SH061999 -17.5000 124.800 40 0 -17.3000 124.700 20 25 3 -17.2000 124.500 TC 40 998 4 198
1998335S12138 1999 98 SI WA THELMA 1998-12-12 03:00:00 TS -17.5550 124.570 main 0 0 P_____P_____P_ SH061999 -17.6651 124.608 37 0 -17.5425 124.573 20 25 -17.4575 124.530 TC 40 997 5 207
1998335S12138 1999 98 SI WA THELMA 1998-12-12 06:00:00 TS -17.7667 124.433 25 bom main 0 0 O_____O_____I_ jtwc_sh SH061999 -17.8000 124.400 35 0 -17.8000 124.400 20 25 3 -17.7000 124.500 TC 40 997 5 215
1998335S12138 1999 98 SI WA THELMA 1998-12-12 09:00:00 TS -17.9575 124.267 main 0 0 P_____P_____P_ SH061999 -17.9500 124.285 35 0 -18.0575 124.215 20 25 -17.8650 124.302 TC 40 997 5 224
1998335S12138 1999 98 SI WA THELMA 1998-12-12 12:00:00 TS -18.1333 124.067 25 bom main 0 0 O_____O_____O_ jtwc_sh SH061999 -18.1000 124.200 35 0 -18.3000 124.000 20 25 3 -18.0000 124.000 TC 40 997 5 228
1998335S12138 1999 98 SI WA THELMA 1998-12-12 15:00:00 TS -18.3049 123.858 main 0 0 P_____P_____P_ SH061999 -18.2499 124.137 37 0 -18.5149 123.772 20 25 -18.1500 123.665 TC 40 997 6 233
1998335S12138 1999 98 SI WA THELMA 1998-12-12 18:00:00 TS -18.4667 123.600 25 bom main 0 0 O_____O_____I_ jtwc_sh SH061999 -18.4000 124.000 40 0 -18.7000 123.500 20 25 3 -18.3000 123.300 TC 40 997 7 240
1998335S12138 1999 98 SI WA THELMA 1998-12-12 21:00:00 TS -18.6343 123.250 main 0 0 P_____P_____P_ SH061999 -18.5651 123.688 40 0 -18.8726 123.150 20 25 -18.4651 122.913 TC 37 997 7 246
1998335S12138 1999 98 SI WA THELMA 1998-12-13 00:00:00 TS -18.7667 122.900 25 bom main 0 0 O_____O_____O_ jtwc_sh SH061999 -18.7000 123.300 40 0 -19.0000 122.800 20 25 3 -18.6000 122.600 TC 35 997 6 251
1998335S12138 1999 98 SI WA THELMA 1998-12-13 03:00:00 TS -18.8265 122.659 main 0 0 P_____P_____P_ SH061999 -18.7574 122.950 37 0 -19.0649 122.535 20 25 -18.6573 122.492 TC 35 5 257
1998335S12138 1999 98 SI WA THELMA 1998-12-13 06:00:00 TS -18.8667 122.433 25 bom main 0 0 O_____O_____O_ jtwc_sh SH061999 -18.8000 122.600 35 0 -19.1000 122.300 20 25 3 -18.7000 122.400 TC 35 5 257
1998335S12138 1999 98 SI WA THELMA 1998-12-13 09:00:00 TS -18.9450 122.133 main 0 0 P_____P_____P_ SH061999 -18.8850 122.235 35 0 -19.1500 122.050 20 25 -18.8001 122.115 TC 35 6 254
1998335S12138 1999 98 SI WA THELMA 1998-12-13 12:00:00 TS -19.0333 121.833 25 bom main 0 0 O_____O_____O_ jtwc_sh SH061999 -19.0000 121.900 35 0 -19.2000 121.800 20 25 3 -18.9000 121.800 TC 35 5 252
1998335S12138 1999 98 SI WA THELMA 1998-12-13 15:00:00 TS -19.1116 121.585 main 0 0 P_____P_____P_ SH061999 -19.1499 121.628 35 0 -19.2425 121.550 20 25 -18.9424 121.577 TC 32 5 249
1998335S12138 1999 98 SI WA THELMA 1998-12-13 18:00:00 TS -19.2000 121.367 25 bom main 0 0 O_____O_____O_ jtwc_sh SH061999 -19.3000 121.400 35 0 -19.3000 121.300 20 25 3 -19.0000 121.400 TC 30 995 4 242
1998335S12138 1999 98 SI WA THELMA 1998-12-13 21:00:00 TS -19.3191 121.172 main 10 10 P_____P_____P_ SH061999 -19.4074 121.192 35 0 -19.4000 121.043 20 25 -19.1498 121.280 TC 30 995 4 238
1998335S12138 1999 98 SI WA THELMA 1998-12-14 00:00:00 TS -19.4333 120.967 25 bom main 15 11 O_____O_____O_ jtwc_sh SH061999 -19.5000 121.000 35 0 -19.5000 120.800 20 25 3 -19.3000 121.100 TC 30 995 5 247
1998335S12138 1999 98 SI WA THELMA 1998-12-14 03:00:00 TS -19.5025 120.715 main 22 22 P_____P_____P_ SH061999 -19.5999 120.822 35 0 -19.5499 120.600 20 25 -19.3577 120.722 TC 27 995 5 255
1998335S12138 1999 98 SI WA THELMA 1998-12-14 06:00:00 TS -19.5667 120.433 25 bom main 24 24 O_____O_____O_ jtwc_sh SH061999 -19.7000 120.600 35 0 -19.6000 120.400 20 25 3 -19.4000 120.300 TC 25 995 6 255
1998335S12138 1999 98 SI WA THELMA 1998-12-14 09:00:00 TS -19.6567 120.113 main 24 22 P_____P_____P_ SH061999 -19.8002 120.235 35 0 -19.6925 120.143 20 25 -19.4775 119.962 TC 25 995 6 251
1998335S12138 1999 98 SI WA THELMA 1998-12-14 12:00:00 TS -19.7667 119.833 25 bom main 22 15 O_____O_____O_ jtwc_sh SH061999 -19.9000 119.900 35 0 -19.8000 119.900 20 25 3 -19.6000 119.700 TC 25 995 5 242
1998335S12138 1999 98 SI WA THELMA 1998-12-14 15:00:00 TS -19.8824 119.665 main 15 11 P_____P_____P_ SH061999 -19.9999 119.755 35 0 -19.9075 119.727 20 25 -19.7399 119.512 TC 25 995 4 221
1998335S12138 1999 98 SI WA THELMA 1998-12-14 18:00:00 TS -20.0400 119.580 25 bom main 11 0 O_____O_____O_ jtwc_sh SH061999 -20.1000 119.700 35 0 -20.0000 119.600 20 25 3 -20.0000 119.400 TC 25 995 3 202
1998335S12138 1999 98 SI WA THELMA 1998-12-14 21:00:00 TS -20.2075 119.533 main 0 0 P_____P_____P_ SH061999 -20.1625 119.650 35 0 -20.0600 119.495 20 25 -20.4450 119.338 TC 22 4 193
1998335S12138 1999 98 SI WA THELMA 1998-12-15 00:00:00 TS -20.4000 119.500 25 bom main 0 0 O_____O_____O_ jtwc_sh SH061999 -20.3000 119.600 35 0 -20.1000 119.400 20 25 3 -21.0000 119.300 TC 20 4 0
1998335S12138 1999 98 SI WA THELMA 1998-12-15 03:00:00 NR -20.6000 119.513 main 0 0 P_____________ SH061999 -20.6000 119.513 32 -1 20 TC 6 189
1998335S12138 1999 98 SI WA THELMA 1998-12-15 06:00:00 NR -21.0000 119.400 main 0 O_____________ jtwc_sh SH061999 -21.0000 119.400 30 -1 8 194

Digital Typhoon Data and Search

About IBTrACS Database

This database is a web-friendly format of International Best Track Archive for Climate Stewardship (IBTrACS), a global best track data archive curated by NOAA dating back to 1842.

Updated: 2021-10-25